阿特拉斯科普柯空气压缩机/ATLAS COPCO陕西阿特拉斯空压机维修代理商、经销商、批发商,质量保证,欢迎咨询洽谈了解陕西阿特拉斯空压机维修价格/报价/规格/型号/图片等请电话详

 

赛德维尔空压机集团服务热线400-6815868,更多陕西阿特拉斯空压机维修产品信息请咨询集团7大分公司和办事处:

西南公司:四川省成都市金牛区蜀跃东路138号

下辖办事处:四川西昌/攀枝花,重庆市,云南省昆明,贵州贵阳,西藏拉萨

西北公司:陕西省西安市未央区北城村660号

下辖办事处:甘肃兰州,宁夏银川,新疆乌鲁木齐,青海西宁

东北公司:辽宁省沈阳市空沈阳市经开区7号附2

下辖办事处:吉林长春,黑龙江哈尔滨

华北公司:内蒙古呼和浩特市新城区海拉尔街263号

下辖办事处:山西太原,河北保定,天津市,北京市

华南公司:广东省东莞市虎门镇龙眼大道600号

下辖办事处:广西南宁、海南海口、福建厦门

华中公司:河南省郑州市管城区东大街24号

下辖办事处:湖北武汉、江西南昌、湖南长沙

华东公司:浙江省宁波市沿山河南路209号

下辖办事处:山东济南、安徽合肥、上海、江苏苏州

成都赛德维尔空压机有限公司为您提供陕西阿特拉斯空压机维修的详细产品价格、产品图片、原产地、生产厂家等产品介绍信息,您可以直接联系厂家获取空压机配件和空压机油的具体资料

了解更多陕西阿特拉斯空压机维修信息请查询以下空压机配件清单:

 1091635122 15605.40 ELECTR.PANEL 496 25% 11,704.05 
1091635121 13030.51 ELECTR.PANEL 496 25% 9,772.88 
1091635116 15137.24 ELECTR.PANEL 496 25% 11,352.93 
1091635115 14076.07 ELECTR.PANEL 496 25% 10,557.05 
1091635114 12765.21 ELECTR.PANEL 496 25% 9,573.91 
1091635113 12390.69 ELECTR.PANEL 496 25% 9,293.01 
1091635112 16931.87 ELECTR.PANEL 496 25% 12,698.90 
1091635111 15059.21 ELECTR.PANEL 496 25% 11,294.41 
1091635110 13748.35 ELECTR.PANEL 496 25% 10,311.27 
1091635109 18242.71 ELECTR.PANEL 496 25% 13,682.03 
1091635108 13389.43 ELECTR.PANEL 496 25% 10,042.07 
1091635106 12078.58 ELECTR.PANEL 496 25% 9,058.93 
1091635105 15090.43 ELECTR.PANEL 496 25% 11,317.82 
1091635104 12062.98 ELECTR.PANEL 496 25% 9,047.24 
1091635102 11719.66 ELECTR.PANEL 496 25% 8,789.74 
1091635101 14575.45 ELECTR.PANEL 496 25% 10,931.59 
1091635064 16822.62 ELECTR.PANEL 496 25% 12,616.97 
1091635063 16057.96 ELECTR PANEL 496 25% 12,043.47 
1091635062 15839.48 ELECTR.PANEL 496 25% 11,879.61 
1091635061 17743.34 ELECTR.PANEL 496 25% 13,307.51 
1091635060 16432.49 ELECTR.PANEL 496 25% 12,324.36 
1091635059 15714.64 ELECTR.PANEL 496 25% 11,785.98 
1091635058 15901.90 ELECTR PANEL 496 25% 11,926.43 
1091635057 16120.38 ELECTR.PANEL 496 25% 12,090.28 
1091635054 15277.68 ELECTR.PANEL 496 25% 11,458.26 
1091635053 15839.48 ELECTR.PANEL 496 25% 11,879.61 
1091635052 15418.14 ELECTR PANEL 496 25% 11,563.61 
1091635013 14403.79 ELECTR PANEL 496 25% 10,802.84 
1091635012 14138.49 ELECTR.PANEL 496 25% 10,603.87 
1091635011 16073.57 ELECTR.PANEL 496 25% 12,055.17 
1091635010 14715.90 ELECTR.PANEL 496 25% 11,036.92 
1091635009 14029.26 ELECTR.PANEL 496 25% 10,521.94 
1091635008 14216.52 ELECTR.PANEL 496 25% 10,662.39 
1091635007 14450.60 ELECTR.PANEL 496 25% 10,837.95 
1091635004 13592.31 ELECTR.PANEL 496 25% 10,194.23 
1091635003 14138.49 ELECTR.PANEL 496 25% 10,603.87 
1091635002 13732.76 ELECTR.PANEL 496 25% 10,299.57 
1091634924 18929.35 ELECTRICAL P 496 25% 14,197.01 
1091634923 11922.52 ELECTRICAL P 496 25% 8,941.89 
1091634922 10908.18 ELECTRICAL P 496 25% 8,181.13 
1091634921 10518.04 ELECTRICAL P 496 25% 7,888.53 
1091634917 12265.85 ELECTRICAL P 496 25% 9,199.39 
1091634413 25125.46 MOTOR 30KW 3 496 25% 18,844.09 
1091634412 25125.46 MOTOR 30KW 2 496 25% 18,844.09 
1091634404 23189.93 MOTOR 30KW 4 496 25% 17,392.44 
1091634313 14169.59 MOTOR 22KW 3 496 25% 10,627.19 
1091634312 14169.59 MOTOR 22KW 2 496 25% 10,627.19 
1091634304 13840.91 MOTOR 22KW 4 496 25% 10,380.68 
1091634213 18424.12 MOTOR 18KW 3 496 25% 13,818.09 
1091634212 18424.12 MOTOR 18KW 2 496 25% 13,818.09 
1091634204 17894.59 MOTOR 18KW 4 496 25% 13,420.94 
1091634113 15246.91 MOTOR 15KW 3 496 25% 11,435.19 
1091634112 15246.91 MOTOR 15KW 2 496 25% 11,435.19 
1091634104 14589.56 MOTOR 15KW 4 496 25% 10,942.17 
1091634013 13000.97 MOTOR 11KW 3 496 25% 9,750.73 
1091634012 13000.97 MOTOR 11KW 2 496 25% 9,750.73 
1091634004 12398.40 MOTOR 11KW 4 496 25% 9,298.80 
1091633913 9622.91 MOTOR 7.5KW 496 25% 7,217.18 
1091633912 9622.91 MOTOR 7.5KW 496 25% 7,217.18 
1091633904 8883.39 MOTOR 7.5KW 496 25% 6,662.54 
1091633813 7943.00 MOTOR 5.5KW 496 25% 5,957.25 
1091633812 7970.39 MOTOR 5.5KW 496 25% 5,977.79 
1091633804 7194.35 MOTOR 5.5KW 496 25% 5,395.77 
1091633757 12562.73 MOTOR 11KW 3 496 25% 9,422.05 
1091633756 12562.73 MOTOR 11KW 2 496 25% 9,422.05 
1091633747 11101.94 MOTOR 11KW 4 496 25% 8,326.46 
1091633737 9129.90 MOTOR 7.5KW 496 25% 6,847.42 
1091633736 9129.90 MOTOR 7.5KW 496 25% 6,847.42 
1091633727 8089.09 MOTOR 7.5KW 496 25% 6,066.82 
1091633717 7778.66 MOTOR 5.5KW 496 25% 5,834.00 
1091633716 7778.66 MOTOR 5.5KW 496 25% 5,834.00 
1091633707 6902.19 MOTOR 5.5KW 496 25% 5,176.64 
1091633613 11448.88 MOTOR 11KW 3 496 25% 8,586.66 
1091633612 11448.88 MOTOR 11KW 2 496 25% 8,586.66 
1091633604 10572.41 MOTOR 11KW 4 496 25% 7,929.31 
1091621000 1193.80 HOSE X45-150 496 25% 895.35 
1091617300 556.92 SUPPORT 498 25% 417.69 
1091613400 414.78 PIPE 490 25% 311.08 
1091609600 17.74 DATAPLATE PE 496 25% 13.30 
1091609300 1372.87 HOSE ASSEMBL 496 25% 1,029.65 
1091605100 11274.69 AIR RECEIVER 490 25% 8,456.02 
1091604700 609.34 HOSE ASSEMBL 496 25% 457.00 
1091604400 567.88 HOSE ASSEMBL 496 25% 425.91 
1091602801 43.83 NIPPLE 496 25% 32.87 
1091600800 173.29 NIPPLE 496 25% 129.97 
1091504200 #N/A VALVE #N/A
1091503800 #N/A PUMP ELEMENT #N/A
1091503700 #N/A LUBRICATOR #N/A
1091461200 #N/A CUP SPRING #N/A
1091410302 #N/A RECOND.SET #N/A
1091410301 #N/A RECOND.SET #N/A
1091410102 #N/A RECOND.SET #N/A
1091410101 #N/A RECOND.SET #N/A
1091410002 #N/A RECOND.SET #N/A
1091410001 #N/A RECOND.SET #N/A
1091407900 #N/A RECOND.SET #N/A
1091407500 #N/A RECOND.SET #N/A
1091407000 #N/A RECOND.SET #N/A
1091405300 #N/A RECOND.SET #N/A
1091269100 #N/A MAINTENANCE #N/A
1091068800 6292.31 PRESSURE GAU 496 25% 4,719.23 
1091068200 3846.68 GAUGE 496 25% 2,885.01 
1091067100 #N/A PRESSURE GAU #N/A
1091050000 #N/A THERMOMETER #N/A
1091048800 606.84 DIAPHRAGM. 496 25% 455.13 
1091034080 #N/A RELIEF VALVE #N/A
1091033880 #N/A RELIEF VALVE #N/A
1091032281 #N/A RELIEF VALVE #N/A
1091031900 2913.19 TEMP.SWITCH 496 25% 2,184.90 
1090442200 #N/A GASKET(LUBRI #N/A
1090441900 #N/A BA 10X22X7 #N/A
1090441800 #N/A GASKET #N/A
1090440900 #N/A GLASS #N/A
1090438000 #N/A GASKET #N/A
1090434500 #N/A COVER #N/A
1090432800 #N/A BALL #N/A
1090432100 #N/A SEALING RING #N/A
1090054500 #N/A SPRING #N/A
1090039100 #N/A SPRING #N/A
1090037800 #N/A SPRING #N/A
1090023400 #N/A SPRING #N/A
1089999684 #N/A OIL HEATER #N/A
1089999638 240947.41 VOLTAGE CONV 496 25% 180,710.56 
1089999475 118288.95 DEWPOINT TRA 496 25% 88,716.72 
1089999461 26263.89 D-PRES TRANS 496 25% 19,697.92 
1089999459 28589.10 PRESS.TRANSM 496 25% 21,441.83 
1089999458 20911.23 TEMP.TRANSMI 496 25% 15,683.43 
1089999442 #N/A OIL HEATER #N/A
1089999432 108769.66 SOFT STARTER 496 25% 81,577.24 
1089999431 3620.45 SAFETY RELAY 496 25% 2,715.34 
1089999430 4587.99 EMERG阿特拉斯空压机配件Y RE 496 25% 3,440.99 
1089999427 14263.34 VOLTAGE RELA 496 25% 10,697.51 
1089999406 7709.07 SOLENOID VAL 496 25% 5,781.80 
1089999282 22175.28 TEMP. TRANSM 496 25% 16,631.46 
1089999281 35970.46 PRESS.TRANSM 496 25% 26,977.84 
1089961106 #N/A CONTROL PANE #N/A

赛德维尔集团是陕西阿特拉斯空压机维修一站式供应商,我们将竭诚为您服务!